Time;durP1;ratioP1;P1;durP2;ratioP2;P2;SDS_P1;SDS_P2;PMS_P1;PMS_P2;Temp;Humidity;BMP_temperature;BMP_pressure;BME280_temperature;BME280_humidity;BME280_pressure;Samples;Min_cycle;Max_cycle;Signal;HPM_P1;HPM_P2
2021/09/06 00:00:47;;;;;;;2.47;1.82;;;;;;;9.42;74.10;97385.16;1663850;84;20999;-81
2021/09/06 00:03:13;;;;;;;3.02;1.70;;;;;;;9.40;74.16;97384.97;1685858;84;21043;-81
2021/09/06 00:05:39;;;;;;;2.30;1.67;;;;;;;9.35;74.61;97382.84;1676110;84;21366;-81
2021/09/06 00:08:04;;;;;;;2.65;1.42;;;;;;;9.31;74.95;97382.33;1706794;83;21018;-81
2021/09/06 00:10:39;;;;;;;2.98;1.37;;;;;;;9.29;75.22;97385.56;1672009;84;21055;-82
2021/09/06 00:13:06;;;;;;;2.45;1.40;;;;;;;9.27;75.35;97387.48;1683601;84;21000;-81
2021/09/06 00:15:36;;;;;;;2.10;1.20;;;;;;;9.27;75.50;97380.16;1679194;84;21030;-81
2021/09/06 00:18:02;;;;;;;2.85;1.40;;;;;;;9.28;75.69;97386.52;1661556;84;21051;-81
2021/09/06 00:20:28;;;;;;;2.05;1.57;;;;;;;9.26;75.35;97382.42;1673462;84;21046;-81
2021/09/06 00:22:54;;;;;;;2.62;1.45;;;;;;;9.25;75.40;97385.50;1677719;84;21010;-81
2021/09/06 00:25:20;;;;;;;2.80;1.57;;;;;;;9.23;75.50;97390.50;1691021;84;21051;-81
2021/09/06 00:27:47;;;;;;;3.33;1.55;;;;;;;9.21;75.75;97390.66;1690607;84;21462;-81
2021/09/06 00:30:13;;;;;;;2.37;1.45;;;;;;;9.22;75.36;97384.50;1688125;84;21086;-81
2021/09/06 00:32:39;;;;;;;2.55;1.40;;;;;;;9.22;75.40;97389.69;1680126;84;21027;-81
2021/09/06 00:35:06;;;;;;;3.50;1.80;;;;;;;9.22;75.37;97387.09;1680593;84;21086;-81
2021/09/06 00:37:32;;;;;;;3.10;1.62;;;;;;;9.21;75.42;97389.36;1703310;83;21167;-81
2021/09/06 00:39:58;;;;;;;2.87;2.15;;;;;;;9.18;75.25;97390.14;1687022;84;21015;-81
2021/09/06 00:42:24;;;;;;;2.65;1.98;;;;;;;9.12;75.31;97385.08;1684718;84;21406;-81
2021/09/06 00:44:49;;;;;;;3.45;1.52;;;;;;;9.11;75.45;97389.94;1688107;84;20976;-81
2021/09/06 00:47:16;;;;;;;3.08;1.50;;;;;;;9.09;75.43;97387.94;1654504;85;21006;-81
2021/09/06 00:49:42;;;;;;;2.00;1.70;;;;;;;9.10;75.54;97391.34;1659607;84;21088;-81
2021/09/06 00:52:07;;;;;;;1.95;1.47;;;;;;;9.11;75.35;97382.16;1711839;83;21380;-81
2021/09/06 00:54:34;;;;;;;3.05;1.90;;;;;;;9.08;75.63;97378.53;1677596;84;21369;-81
2021/09/06 00:56:59;;;;;;;3.70;2.22;;;;;;;9.06;75.76;97379.17;1678072;84;21134;-81
2021/09/06 00:59:25;;;;;;;3.65;1.57;;;;;;;9.01;75.63;97385.29;1665921;85;21115;-81
2021/09/06 01:01:51;;;;;;;2.33;1.40;;;;;;;8.99;76.00;97380.25;1666187;84;21072;-81
2021/09/06 01:04:17;;;;;;;3.62;1.80;;;;;;;8.97;75.60;97382.66;1661196;85;21427;-81
2021/09/06 01:06:42;;;;;;;2.47;1.42;;;;;;;8.94;75.83;97383.74;1677507;84;21006;-81
2021/09/06 01:09:08;;;;;;;1.77;1.40;;;;;;;8.92;75.69;97382.27;1637759;85;21092;-82
2021/09/06 01:11:34;;;;;;;2.75;1.52;;;;;;;8.90;75.92;97381.13;1656418;85;21367;-81
2021/09/06 01:14:00;;;;;;;2.55;1.50;;;;;;;8.87;75.93;97374.13;1680285;84;21022;-81
2021/09/06 01:16:26;;;;;;;2.40;1.62;;;;;;;8.83;75.89;97385.27;1685825;84;21468;-81
2021/09/06 01:18:52;;;;;;;3.12;1.72;;;;;;;8.78;76.04;97375.80;1690327;84;21001;-81
2021/09/06 01:21:17;;;;;;;3.65;1.65;;;;;;;8.77;76.18;97378.55;1668510;84;21016;-81
2021/09/06 01:23:43;;;;;;;2.27;1.52;;;;;;;8.74;76.23;97378.36;1664747;85;20981;-81
2021/09/06 01:26:09;;;;;;;2.92;1.75;;;;;;;8.74;76.24;97378.36;1657488;84;22127;-81
2021/09/06 01:28:37;;;;;;;2.98;1.77;;;;;;;8.71;76.17;97374.77;1683868;84;21020;-82
2021/09/06 01:31:03;;;;;;;3.27;1.42;;;;;;;8.68;76.12;97377.66;1677200;84;21082;-81
2021/09/06 01:33:28;;;;;;;2.37;1.50;;;;;;;8.65;76.29;97377.47;1682272;85;21142;-81
2021/09/06 01:35:54;;;;;;;3.02;1.60;;;;;;;8.63;76.28;97380.69;1684700;84;21123;-81
2021/09/06 01:38:20;;;;;;;2.27;1.50;;;;;;;8.58;76.62;97375.11;1680487;84;21402;-81
2021/09/06 01:40:47;;;;;;;5.70;1.85;;;;;;;8.56;76.34;97375.73;1681825;84;21051;-81
2021/09/06 01:43:12;;;;;;;2.30;1.37;;;;;;;8.55;76.72;97382.36;1655772;84;21039;-81
2021/09/06 01:45:38;;;;;;;2.52;1.70;;;;;;;8.56;76.79;97373.63;1702657;83;21000;-81
2021/09/06 01:48:05;;;;;;;2.75;1.80;;;;;;;8.56;76.74;97370.55;1689198;84;21030;-81
2021/09/06 01:50:30;;;;;;;2.30;1.47;;;;;;;8.56;76.79;97374.92;1705807;83;21424;-81
2021/09/06 01:52:56;;;;;;;2.55;1.70;;;;;;;8.56;76.83;97377.52;1706792;83;21077;-81
2021/09/06 01:55:22;;;;;;;4.35;1.95;;;;;;;8.54;76.93;97374.25;1692639;84;20986;-81
2021/09/06 01:57:48;;;;;;;3.58;1.42;;;;;;;8.52;77.04;97376.99;1697491;84;21047;-81
2021/09/06 02:00:14;;;;;;;2.35;1.20;;;;;;;8.54;77.06;97381.55;1679492;84;21113;-81
2021/09/06 02:02:40;;;;;;;1.95;1.20;;;;;;;8.55;77.04;97376.70;1704532;84;21114;-81
2021/09/06 02:05:07;;;;;;;2.02;1.50;;;;;;;8.56;76.88;97377.03;1688845;84;21083;-81
2021/09/06 02:07:32;;;;;;;2.35;1.22;;;;;;;8.58;76.86;97385.47;1672417;84;20984;-81
2021/09/06 02:09:58;;;;;;;3.90;1.35;;;;;;;8.58;76.90;97382.06;1678452;84;21404;-81
2021/09/06 02:12:24;;;;;;;2.62;1.82;;;;;;;8.49;76.97;97369.52;1671263;84;21003;-81
2021/09/06 02:14:50;;;;;;;3.50;1.42;;;;;;;8.52;77.35;97385.24;1683758;84;21108;-81
2021/09/06 02:17:16;;;;;;;1.90;1.47;;;;;;;8.48;77.30;97377.44;1699473;84;20976;-81
2021/09/06 02:19:42;;;;;;;2.25;1.75;;;;;;;8.46;77.61;97380.63;1695940;84;21000;-81
2021/09/06 02:22:08;;;;;;;2.92;1.27;;;;;;;8.47;77.54;97380.50;1684517;84;21023;-81
2021/09/06 02:24:33;;;;;;;2.30;1.25;;;;;;;8.47;77.47;97379.20;1692871;84;21375;-81
2021/09/06 02:26:59;;;;;;;2.92;1.40;;;;;;;8.47;77.27;97379.20;1681756;84;21051;-81
2021/09/06 02:29:25;;;;;;;1.85;1.30;;;;;;;8.45;77.25;97382.39;1694585;84;21057;-81
2021/09/06 02:31:51;;;;;;;1.60;1.30;;;;;;;8.42;77.28;97380.09;1654619;85;21093;-81
2021/09/06 02:34:17;;;;;;;3.15;1.65;;;;;;;8.38;77.34;97382.16;1672724;84;21103;-81
2021/09/06 02:36:43;;;;;;;2.05;1.42;;;;;;;8.36;77.63;97382.80;1684965;84;21043;-81
2021/09/06 02:39:08;;;;;;;5.03;1.52;;;;;;;8.38;77.69;97386.53;1690617;84;21085;-81
2021/09/06 02:41:35;;;;;;;2.20;1.30;;;;;;;8.37;77.30;97387.48;1701170;84;21094;-81
2021/09/06 02:44:00;;;;;;;3.25;1.35;;;;;;;8.35;77.13;97390.23;1701594;84;21015;-81
2021/09/06 02:46:26;;;;;;;2.45;1.20;;;;;;;8.34;77.22;97391.19;1690173;84;21062;-81
2021/09/06 02:48:52;;;;;;;2.40;1.57;;;;;;;8.31;77.36;97395.33;1684602;84;21066;-81
2021/09/06 02:51:18;;;;;;;2.60;1.35;;;;;;;8.27;77.28;97393.96;1682597;84;21086;-81
2021/09/06 02:53:44;;;;;;;2.67;1.30;;;;;;;8.24;77.25;97393.44;1691835;83;21140;-82
2021/09/06 02:56:10;;;;;;;2.92;1.25;;;;;;;8.22;77.32;97390.99;1690932;83;21131;-81
2021/09/06 02:58:36;;;;;;;2.25;1.30;;;;;;;8.21;77.25;97391.95;1692277;83;21101;-81
2021/09/06 03:01:01;;;;;;;2.33;1.50;;;;;;;8.21;77.35;97387.25;1672856;85;21040;-82
2021/09/06 03:03:27;;;;;;;2.00;1.37;;;;;;;8.23;77.60;97390.52;1659249;85;21086;-81
2021/09/06 03:05:53;;;;;;;2.45;1.42;;;;;;;8.21;77.39;97388.07;1674550;84;21040;-81
2021/09/06 03:08:18;;;;;;;2.65;1.22;;;;;;;8.17;77.34;97388.02;1699113;84;21076;-81
2021/09/06 03:10:44;;;;;;;1.90;1.55;;;;;;;8.14;77.38;97385.72;1688985;84;21052;-81
2021/09/06 03:13:10;;;;;;;2.58;1.72;;;;;;;8.11;77.36;97382.91;1693408;84;21429;-81
2021/09/06 03:15:36;;;;;;;1.82;1.10;;;;;;;8.12;77.79;97386.31;1700909;84;21031;-81
2021/09/06 03:18:01;;;;;;;2.15;1.30;;;;;;;8.12;77.65;97387.13;1681232;84;21002;-81
2021/09/06 03:20:27;;;;;;;2.60;1.42;;;;;;;8.12;77.79;97381.95;1696437;83;21028;-81
2021/09/06 03:22:53;;;;;;;2.15;1.50;;;;;;;8.09;77.66;97382.25;1688821;84;21067;-81
2021/09/06 03:25:19;;;;;;;3.17;1.50;;;;;;;8.04;77.78;97373.28;1652587;85;21100;-81
2021/09/06 03:27:45;;;;;;;3.20;1.70;;;;;;;8.02;77.93;97380.38;1686846;84;21129;-81
2021/09/06 03:30:12;;;;;;;3.22;1.60;;;;;;;8.00;78.35;97374.05;1674801;84;21082;-81
2021/09/06 03:32:37;;;;;;;2.75;1.80;;;;;;;8.01;78.07;97382.62;1659408;86;21000;-81
2021/09/06 03:35:04;;;;;;;2.00;1.60;;;;;;;8.02;78.23;97379.90;1699566;83;21050;-81
2021/09/06 03:37:29;;;;;;;3.60;1.50;;;;;;;8.03;78.16;97379.42;1696536;83;20983;-81
2021/09/06 03:39:55;;;;;;;2.75;1.52;;;;;;;8.00;78.44;97378.41;1645558;86;21166;-81
2021/09/06 03:42:21;;;;;;;2.58;1.90;;;;;;;7.98;78.80;97379.03;1643188;84;21023;-81
2021/09/06 03:44:47;;;;;;;2.45;1.40;;;;;;;7.96;78.62;97376.56;1714019;83;21209;-81
2021/09/06 03:47:13;;;;;;;3.50;2.33;;;;;;;7.96;78.47;97373.97;1694907;83;21401;-81
2021/09/06 03:49:39;;;;;;;3.33;1.92;;;;;;;7.98;78.55;97377.74;1682081;84;21088;-81
2021/09/06 03:52:05;;;;;;;2.47;2.00;;;;;;;7.97;78.75;97379.52;1707225;84;21091;-81
2021/09/06 03:54:30;;;;;;;2.92;1.55;;;;;;;7.97;78.74;97382.10;1696626;84;21066;-81
2021/09/06 03:56:56;;;;;;;3.05;1.70;;;;;;;7.93;78.43;97379.44;1675376;84;21061;-81
2021/09/06 03:59:22;;;;;;;2.42;1.60;;;;;;;7.89;78.57;97378.57;1671391;85;21394;-81
2021/09/06 04:01:48;;;;;;;2.30;1.52;;;;;;;7.86;78.78;97384.03;1678593;84;21220;-81
2021/09/06 04:04:13;;;;;;;2.67;1.65;;;;;;;7.84;78.95;97381.59;1683920;84;21121;-81
2021/09/06 04:06:39;;;;;;;3.47;1.82;;;;;;;7.84;78.68;97382.88;1686153;84;21602;-81
2021/09/06 04:09:05;;;;;;;1.98;1.50;;;;;;;7.83;78.68;97380.77;1667869;85;21085;-81
2021/09/06 04:11:31;;;;;;;4.53;3.08;;;;;;;7.86;78.95;97380.97;1690031;84;21067;-81
2021/09/06 04:13:57;;;;;;;2.17;1.52;;;;;;;7.87;78.65;97384.37;1688437;84;21043;-81
2021/09/06 04:16:23;;;;;;;3.98;1.82;;;;;;;7.85;78.77;97386.28;1667887;84;21078;-81
2021/09/06 04:18:48;;;;;;;2.55;1.32;;;;;;;7.86;78.78;97384.03;1690822;84;20976;-81
2021/09/06 04:21:14;;;;;;;2.60;1.45;;;;;;;7.84;78.61;97382.88;1685067;84;21121;-81
2021/09/06 04:23:42;;;;;;;2.70;1.55;;;;;;;7.86;78.67;97385.33;1678470;84;21438;-81
2021/09/06 04:26:07;;;;;;;2.33;1.62;;;;;;;7.88;78.58;97385.52;1691918;84;21007;-81
2021/09/06 04:28:33;;;;;;;3.87;2.10;;;;;;;7.89;78.62;97389.73;1696546;84;21459;-81
2021/09/06 04:30:59;;;;;;;2.85;1.47;;;;;;;7.87;78.70;97395.53;1685477;84;21053;-81
2021/09/06 04:33:25;;;;;;;2.90;1.52;;;;;;;7.85;78.71;97396.16;1710941;83;21030;-81
2021/09/06 04:35:52;;;;;;;2.55;1.87;;;;;;;7.86;79.11;97395.67;1691357;83;21006;-81
2021/09/06 04:38:18;;;;;;;2.75;1.80;;;;;;;7.86;78.85;97399.08;1660376;84;21448;-81
2021/09/06 04:40:43;;;;;;;3.67;1.80;;;;;;;7.87;78.85;97400.71;1695069;84;21022;-81
2021/09/06 04:43:09;;;;;;;2.72;1.40;;;;;;;7.91;78.89;97399.94;1656597;85;21052;-81
2021/09/06 04:45:35;;;;;;;2.20;1.52;;;;;;;7.93;78.93;97405.80;1684937;84;21301;-81
2021/09/06 04:48:01;;;;;;;2.52;1.57;;;;;;;7.94;79.22;97399.66;1670342;84;21120;-81
2021/09/06 04:50:27;;;;;;;2.37;1.70;;;;;;;7.96;79.21;97402.44;1673837;84;21163;-81
2021/09/06 04:52:55;;;;;;;2.90;1.47;;;;;;;7.98;79.27;97401.84;1664293;84;21112;-81
2021/09/06 04:55:22;;;;;;;2.55;1.67;;;;;;;8.00;79.28;97404.30;1648657;84;21072;-81
2021/09/06 04:57:48;;;;;;;2.80;1.47;;;;;;;8.04;79.59;97399.16;1661422;84;21065;-81
2021/09/06 05:00:14;;;;;;;7.65;3.58;;;;;;;8.07;79.45;97399.69;1684825;84;21019;-81
2021/09/06 05:02:40;;;;;;;2.67;1.52;;;;;;;8.11;79.71;97394.56;1699809;83;21003;-81
2021/09/06 05:05:07;;;;;;;2.72;1.62;;;;;;;8.13;79.68;97398.30;1699072;83;21343;-81
2021/09/06 05:07:32;;;;;;;2.75;1.42;;;;;;;8.12;79.83;97398.78;1727324;83;21019;-81
2021/09/06 05:09:58;;;;;;;3.62;1.52;;;;;;;8.15;79.73;97400.30;1725924;82;21059;-81
2021/09/06 05:12:24;;;;;;;2.72;1.65;;;;;;;8.16;79.74;97399.81;1706485;83;21297;-81
2021/09/06 05:14:49;;;;;;;2.85;1.60;;;;;;;8.20;79.86;97407.63;1698930;83;21461;-81
2021/09/06 05:17:15;;;;;;;3.83;1.77;;;;;;;8.23;79.59;97409.93;1701433;83;21089;-81
2021/09/06 05:19:41;;;;;;;2.22;1.50;;;;;;;8.26;79.70;97413.05;1709995;83;21038;-81
2021/09/06 05:22:07;;;;;;;2.52;1.57;;;;;;;8.30;79.87;97420.08;1709783;83;21051;-81
2021/09/06 05:24:34;;;;;;;2.42;1.57;;;;;;;8.32;79.81;97425.92;1676837;84;21092;-81
2021/09/06 05:27:00;;;;;;;4.00;1.57;;;;;;;8.34;79.81;97425.33;1676564;84;21399;-81
2021/09/06 05:29:25;;;;;;;1.80;1.25;;;;;;;8.40;79.92;97428.16;1701541;84;20989;-81
2021/09/06 05:31:52;;;;;;;1.92;1.32;;;;;;;8.48;79.76;97425.35;1687084;84;21051;-81
2021/09/06 05:34:18;;;;;;;3.75;1.70;;;;;;;8.53;79.82;97428.31;1699667;84;21023;-81
2021/09/06 05:36:44;;;;;;;2.30;1.50;;;;;;;8.58;80.00;97430.80;1668520;84;21819;-81
2021/09/06 05:39:09;;;;;;;3.12;2.40;;;;;;;8.64;80.08;97417.77;1679449;84;21421;-81
2021/09/06 05:41:35;;;;;;;2.20;1.30;;;;;;;8.68;80.08;97422.52;1682045;84;21037;-81
2021/09/06 05:44:04;;;;;;;2.55;1.70;;;;;;;8.73;80.06;97424.66;1680198;84;21000;-81
2021/09/06 05:46:29;;;;;;;1.72;1.32;;;;;;;8.77;80.05;97423.41;1660097;85;21127;-81
2021/09/06 05:48:55;;;;;;;2.92;1.87;;;;;;;8.81;80.11;97424.77;1687657;84;21090;-81
2021/09/06 05:51:20;;;;;;;2.72;1.47;;;;;;;8.90;80.17;97425.66;1661349;85;21513;-81
2021/09/06 05:53:46;;;;;;;3.12;1.67;;;;;;;8.97;80.21;97422.84;1702481;84;21080;-81
2021/09/06 05:56:12;;;;;;;3.42;1.50;;;;;;;9.02;80.30;97425.80;1667763;84;21153;-81
2021/09/06 05:58:38;;;;;;;2.52;1.62;;;;;;;9.11;80.50;97427.53;1676481;84;21036;-81
2021/09/06 06:01:04;;;;;;;2.55;1.37;;;;;;;9.12;80.69;97416.67;1691872;84;21062;-81
2021/09/06 06:03:30;;;;;;;2.62;1.50;;;;;;;9.24;80.61;97422.77;1696027;84;21043;-81
2021/09/06 06:05:56;;;;;;;3.90;1.55;;;;;;;9.29;80.56;97424.46;1677496;84;21039;-81
2021/09/06 06:08:21;;;;;;;3.50;1.65;;;;;;;9.35;80.53;97426.93;1679034;84;21036;-81
2021/09/06 06:10:47;;;;;;;3.25;1.98;;;;;;;9.42;80.68;97425.84;1678629;84;21104;-81
2021/09/06 06:13:13;;;;;;;2.52;1.60;;;;;;;9.47;80.60;97428.34;1663316;84;21496;-81
2021/09/06 06:15:39;;;;;;;2.42;1.72;;;;;;;9.52;80.65;97426.59;1678429;84;21370;-81
2021/09/06 06:18:04;;;;;;;2.95;1.67;;;;;;;9.60;80.70;97429.27;1701334;84;21031;-81
2021/09/06 06:20:30;;;;;;;3.33;2.05;;;;;;;9.67;80.31;97430.77;1685883;84;21139;-81
2021/09/06 06:22:58;;;;;;;3.83;2.33;;;;;;;9.74;80.49;97424.00;1657892;85;21051;-81
2021/09/06 06:25:24;;;;;;;2.98;2.05;;;;;;;9.80;80.24;97425.53;1672041;84;21113;-81
2021/09/06 06:27:49;;;;;;;4.12;1.98;;;;;;;9.87;80.11;97427.84;1699574;84;21095;-81
2021/09/06 06:30:15;;;;;;;4.20;2.40;;;;;;;9.90;79.39;97421.52;1681763;84;21087;-81
2021/09/06 06:32:42;;;;;;;3.12;2.20;;;;;;;9.91;78.98;97430.45;1682879;84;21031;-82
2021/09/06 06:35:08;;;;;;;3.58;2.55;;;;;;;9.93;79.07;97432.44;1682637;84;21097;-81
2021/09/06 06:37:34;;;;;;;2.65;1.72;;;;;;;9.99;79.36;97429.71;1692952;84;21059;-81
2021/09/06 06:40:00;;;;;;;3.00;1.92;;;;;;;10.09;79.74;97432.22;1699110;84;21430;-81
2021/09/06 06:42:26;;;;;;;5.12;2.00;;;;;;;10.14;79.75;97436.46;1691113;84;21054;-81
2021/09/06 06:44:52;;;;;;;2.98;1.95;;;;;;;10.17;79.60;97436.97;1693332;84;21520;-81
2021/09/06 06:47:17;;;;;;;3.20;2.00;;;;;;;10.25;79.42;97440.59;1666958;85;21099;-81
2021/09/06 06:49:44;;;;;;;4.47;2.12;;;;;;;10.31;79.46;97441.30;1683324;84;21035;-81
2021/09/06 06:52:10;;;;;;;4.15;2.30;;;;;;;10.35;79.03;97440.02;1687614;84;21107;-81
2021/09/06 06:54:35;;;;;;;3.02;1.90;;;;;;;10.40;78.99;97441.17;1663775;85;21029;-81
2021/09/06 06:57:02;;;;;;;4.80;2.50;;;;;;;10.46;79.31;97445.77;1661391;85;21317;-81
2021/09/06 06:59:28;;;;;;;2.90;2.05;;;;;;;10.52;79.48;97445.63;1681858;84;21030;-81
2021/09/06 07:01:53;;;;;;;3.02;1.75;;;;;;;10.63;79.56;97448.45;1686384;84;20972;-81
2021/09/06 07:04:19;;;;;;;3.15;1.92;;;;;;;10.63;79.45;97448.45;1667687;84;21481;-81
2021/09/06 07:06:45;;;;;;;4.05;1.92;;;;;;;10.75;79.54;97458.41;1670529;83;21050;-81
2021/09/06 07:09:11;;;;;;;2.08;1.60;;;;;;;10.81;79.65;97462.98;1681358;83;21053;-81
2021/09/06 07:11:36;;;;;;;2.62;1.60;;;;;;;10.86;79.72;97459.91;1700034;83;21046;-81
2021/09/06 07:14:02;;;;;;;2.65;1.75;;;;;;;10.91;79.26;97465.47;1689912;84;21071;-81
2021/09/06 07:16:29;;;;;;;2.98;1.82;;;;;;;10.98;79.32;97466.94;1682300;84;21046;-81
2021/09/06 07:18:55;;;;;;;3.65;2.27;;;;;;;11.02;79.67;97466.95;1670443;85;21475;-81
2021/09/06 07:21:20;;;;;;;4.67;2.90;;;;;;;11.05;79.31;97471.83;1690005;84;21115;-80
2021/09/06 07:23:46;;;;;;;3.65;2.08;;;;;;;11.07;77.86;97469.91;1691222;84;21168;-81
2021/09/06 07:26:12;;;;;;;3.17;2.30;;;;;;;11.11;79.34;97474.62;1651212;86;21086;-81
2021/09/06 07:28:38;;;;;;;4.90;2.77;;;;;;;11.17;78.52;97480.16;1683806;84;21093;-81
2021/09/06 07:31:03;;;;;;;4.65;3.05;;;;;;;11.23;77.49;97482.95;1687343;84;21011;-81
2021/09/06 07:33:30;;;;;;;3.87;2.25;;;;;;;11.30;76.82;97482.64;1699102;84;21343;-81
2021/09/06 07:35:55;;;;;;;5.12;2.08;;;;;;;11.38;77.93;97480.04;1683741;84;21087;-81
2021/09/06 07:38:21;;;;;;;4.70;2.42;;;;;;;11.47;78.28;97485.27;1707358;83;21361;-81
2021/09/06 07:40:47;;;;;;;4.55;3.55;;;;;;;11.49;78.63;97483.32;1693768;83;21010;-81
2021/09/06 07:43:13;;;;;;;4.58;2.98;;;;;;;11.51;78.08;97487.39;1701588;83;21047;-81
2021/09/06 07:45:38;;;;;;;4.12;3.30;;;;;;;11.57;77.94;97482.86;1674328;84;21481;-81
2021/09/06 07:48:04;;;;;;;4.55;3.02;;;;;;;11.65;77.17;97478.95;1655527;84;21035;-81
2021/09/06 07:50:30;;;;;;;5.78;3.42;;;;;;;11.75;77.94;97480.59;1694668;83;20936;-81
2021/09/06 07:52:57;;;;;;;3.67;2.30;;;;;;;11.82;77.53;97480.30;1712419;83;21118;-81
2021/09/06 07:55:22;;;;;;;4.87;3.60;;;;;;;11.89;78.59;97479.50;1691878;84;21425;-81
2021/09/06 07:57:48;;;;;;;6.67;4.10;;;;;;;11.96;77.97;97483.06;1690175;83;21004;-81
2021/09/06 08:00:15;;;;;;;6.12;2.98;;;;;;;12.01;77.15;97483.38;1716663;83;21069;-81
2021/09/06 08:02:50;;;;;;;5.83;4.10;;;;;;;12.12;77.71;97490.55;1721011;83;21430;-81
2021/09/06 08:05:23;;;;;;;7.72;5.17;;;;;;;12.21;77.24;97485.66;1707615;83;21062;-81
2021/09/06 08:07:48;;;;;;;;;;;;;;;12.29;76.54;97488.24;1668236;84;21055;-81
2021/09/06 08:10:14;;;;;;;4.58;2.72;;;;;;;12.36;76.80;97488.39;1675963;84;20433;-81
2021/09/06 08:12:40;;;;;;;6.87;4.12;;;;;;;12.40;77.79;97491.82;1678576;84;21067;-81
2021/09/06 08:15:07;;;;;;;5.10;4.12;;;;;;;12.44;77.01;97490.50;1667006;84;21127;-81
2021/09/06 08:17:34;;;;;;;7.15;4.30;;;;;;;12.52;76.86;97490.47;1675938;84;21057;-81
2021/09/06 08:20:06;;;;;;;8.40;5.42;;;;;;;12.65;76.73;97485.23;1651021;85;21109;-81
2021/09/06 08:22:33;;;;;;;5.78;4.22;;;;;;;12.76;76.27;97488.30;1681537;84;21497;-81
2021/09/06 08:25:01;;;;;;;10.13;5.65;;;;;;;12.87;76.03;97496.26;1654742;85;21055;-81
2021/09/06 08:27:26;;;;;;;7.72;4.83;;;;;;;12.96;75.61;97501.75;1686491;84;21405;-81
2021/09/06 08:29:52;;;;;;;8.40;4.72;;;;;;;13.07;75.68;97501.39;1696107;84;20985;-81
2021/09/06 08:32:19;;;;;;;5.17;3.60;;;;;;;13.17;76.05;97501.16;1675712;84;21030;-81
2021/09/06 08:34:48;;;;;;;9.33;3.95;;;;;;;13.24;75.13;97502.65;1694948;84;21030;-81
2021/09/06 08:37:12;;;;;;;6.58;3.62;;;;;;;13.32;74.89;97508.63;1705030;83;21048;-81
2021/09/06 08:39:38;;;;;;;5.05;3.33;;;;;;;13.40;74.52;97509.90;1708163;83;21082;-81
2021/09/06 08:42:04;;;;;;;6.08;3.62;;;;;;;13.51;75.19;97508.70;1689596;84;21039;-81
2021/09/06 08:44:30;;;;;;;5.17;3.08;;;;;;;13.60;74.32;97508.15;1702499;84;21382;-81
2021/09/06 08:46:56;;;;;;;4.60;2.77;;;;;;;13.61;73.14;97510.58;1654565;84;21095;-81
2021/09/06 08:49:21;;;;;;;7.30;3.45;;;;;;;13.63;71.55;97509.91;1703195;84;21012;-81
2021/09/06 08:51:48;;;;;;;4.08;2.77;;;;;;;13.70;72.35;97508.75;1682447;84;21044;-81
2021/09/06 08:54:14;;;;;;;3.52;2.22;;;;;;;13.79;72.47;97512.91;1698358;84;21102;-81
2021/09/06 08:56:40;;;;;;;7.12;3.50;;;;;;;13.88;71.28;97514.48;1700645;84;21003;-81
2021/09/06 08:59:06;;;;;;;6.90;2.77;;;;;;;13.92;72.41;97512.33;1688404;84;21020;-82
2021/09/06 09:01:40;;;;;;;4.33;2.95;;;;;;;13.97;73.47;97508.69;1688418;84;21440;-81
2021/09/06 09:04:23;;;;;;;4.35;3.10;;;;;;;14.00;72.35;97508.37;1680759;84;20997;-81
2021/09/06 09:06:54;;;;;;;4.00;3.02;;;;;;;14.07;73.33;97508.78;1658339;84;21044;-81
2021/09/06 09:09:35;;;;;;;4.15;2.80;;;;;;;14.15;71.66;97503.16;1681251;84;21015;-81
2021/09/06 09:12:05;;;;;;;5.00;3.27;;;;;;;14.24;70.61;97512.06;1680593;84;21018;-81
2021/09/06 09:14:35;;;;;;;4.05;2.50;;;;;;;14.35;71.11;97516.06;1668302;84;21001;-81
2021/09/06 09:17:01;;;;;;;4.25;2.87;;;;;;;14.43;71.32;97512.05;1690198;84;21031;-82
2021/09/06 09:19:27;;;;;;;4.60;2.83;;;;;;;14.50;72.32;97513.52;1684017;84;21124;-81
2021/09/06 09:22:03;;;;;;;3.65;2.37;;;;;;;14.52;72.33;97518.06;1694475;84;21111;-81
2021/09/06 09:24:29;;;;;;;4.28;2.45;;;;;;;14.52;69.49;97512.83;1677271;84;21088;-81
2021/09/06 09:27:00;;;;;;;3.87;2.45;;;;;;;14.62;70.06;97510.75;1695762;84;21072;-81
2021/09/06 09:29:26;;;;;;;5.80;2.58;;;;;;;14.70;69.68;97511.49;1692829;84;21026;-82
2021/09/06 09:31:54;;;;;;;3.92;2.20;;;;;;;14.81;70.04;97512.86;1674594;84;21056;-82
2021/09/06 09:34:20;;;;;;;3.40;2.30;;;;;;;14.88;69.72;97509.01;1676355;84;21032;-82
2021/09/06 09:36:46;;;;;;;4.97;2.08;;;;;;;14.95;70.23;97509.89;1677436;84;21430;-81
2021/09/06 09:39:15;;;;;;;3.83;2.40;;;;;;;15.00;69.04;97511.49;1678622;84;21042;-81
2021/09/06 09:41:46;;;;;;;4.90;2.27;;;;;;;15.00;69.75;97504.45;1687291;84;21117;-82
2021/09/06 09:44:17;;;;;;;2.85;1.80;;;;;;;15.04;70.32;97508.01;1661107;84;21070;-82
2021/09/06 09:46:55;;;;;;;2.95;2.15;;;;;;;15.08;69.54;97506.64;1687227;84;21047;-82
2021/09/06 09:49:21;;;;;;;2.80;1.90;;;;;;;15.11;68.06;97506.27;1692229;84;21051;-82
2021/09/06 09:51:47;;;;;;;3.83;2.50;;;;;;;15.20;68.97;97503.88;1689404;84;21436;-82
2021/09/06 09:54:13;;;;;;;3.17;2.30;;;;;;;15.27;67.72;97496.40;1686160;84;20973;-81
2021/09/06 09:56:43;;;;;;;4.40;2.50;;;;;;;15.31;68.04;97484.59;1688580;84;21047;-81
2021/09/06 09:59:11;;;;;;;3.15;2.10;;;;;;;15.41;68.56;97487.39;1698775;84;21987;-82
2021/09/06 10:01:41;;;;;;;3.33;2.10;;;;;;;15.49;68.27;97489.41;1692812;84;20992;-81
2021/09/06 10:04:08;;;;;;;3.58;2.15;;;;;;;15.55;66.91;97484.73;1692020;84;21438;-81
2021/09/06 10:06:34;;;;;;;4.10;2.77;;;;;;;15.62;69.31;97482.23;1653320;85;21054;-82
2021/09/06 10:08:59;;;;;;;4.45;2.45;;;;;;;15.64;66.35;97476.80;1687953;84;21019;-82
2021/09/06 10:11:36;;;;;;;3.87;2.87;;;;;;;15.71;68.18;97479.78;1716508;83;21015;-82
2021/09/06 10:14:22;;;;;;;3.55;3.00;;;;;;;15.80;65.71;97480.48;1687044;84;21051;-82
2021/09/06 10:16:50;;;;;;;4.87;2.98;;;;;;;15.88;67.50;97475.09;1708997;83;21050;-82
2021/09/06 10:19:16;;;;;;;4.80;2.80;;;;;;;15.98;66.22;97477.41;1675662;84;21063;-82
2021/09/06 10:21:51;;;;;;;4.55;2.60;;;;;;;16.04;66.41;97478.77;1691148;84;21110;-81
2021/09/06 10:24:19;;;;;;;4.37;2.85;;;;;;;16.09;63.30;97479.50;1680454;84;21036;-82
2021/09/06 10:26:46;;;;;;;4.95;2.37;;;;;;;16.14;64.10;97477.95;1672195;84;21493;-82
2021/09/06 10:29:16;;;;;;;3.55;2.40;;;;;;;16.21;65.11;97481.41;1695150;83;21051;-82
2021/09/06 10:31:42;;;;;;;4.90;2.87;;;;;;;16.27;62.23;97481.17;1652196;86;21031;-82
2021/09/06 10:34:09;;;;;;;3.45;2.30;;;;;;;16.35;66.71;97477.59;1679130;84;21006;-82
2021/09/06 10:36:35;;;;;;;6.00;2.70;;;;;;;16.36;63.41;97476.58;1672693;84;21003;-81
2021/09/06 10:39:07;;;;;;;4.30;2.83;;;;;;;16.42;65.11;97470.06;1695081;83;21075;-82
2021/09/06 10:41:45;;;;;;;4.65;2.47;;;;;;;16.47;65.89;97473.44;1672054;85;21031;-82
2021/09/06 10:44:11;;;;;;;4.00;2.50;;;;;;;16.52;65.04;97474.98;1666858;85;21413;-82
2021/09/06 10:46:37;;;;;;;5.25;2.80;;;;;;;16.59;66.29;97474.50;1696063;84;21051;-82
2021/09/06 10:49:05;;;;;;;4.80;2.85;;;;;;;16.62;64.07;97468.89;1714758;83;21047;-81
2021/09/06 10:51:34;;;;;;;3.47;2.30;;;;;;;16.70;65.57;97462.69;1683313;84;21100;-82
2021/09/06 10:54:06;;;;;;;4.20;2.80;;;;;;;16.73;63.84;97464.92;1678171;84;21063;-82
2021/09/06 10:56:32;;;;;;;4.35;2.70;;;;;;;16.83;63.11;97466.70;1680215;83;21043;-82
2021/09/06 10:59:00;;;;;;;4.00;2.30;;;;;;;16.89;60.81;97464.60;1689741;84;21040;-82
2021/09/06 11:01:26;;;;;;;5.40;2.77;;;;;;;16.95;61.84;97463.03;1666093;84;21390;-82
2021/09/06 11:03:52;;;;;;;5.90;2.80;;;;;;;17.03;63.30;97466.28;1657020;84;20984;-82
2021/09/06 11:06:21;;;;;;;4.12;2.52;;;;;;;17.06;63.42;97461.14;1679834;84;21027;-82
2021/09/06 11:08:47;;;;;;;3.37;2.42;;;;;;;17.08;64.00;97462.59;1699729;83;21437;-82
2021/09/06 11:11:13;;;;;;;3.37;2.60;;;;;;;17.12;63.28;97462.19;1717605;83;21053;-82
2021/09/06 11:13:41;;;;;;;3.45;2.47;;;;;;;17.19;64.36;97457.76;1702041;83;21044;-82
2021/09/06 11:16:09;;;;;;;3.05;2.30;;;;;;;17.23;61.78;97458.47;1689250;83;20998;-82
2021/09/06 11:18:38;;;;;;;5.65;2.98;;;;;;;17.29;61.80;97456.39;1692575;84;21477;-82
2021/09/06 11:21:04;;;;;;;3.40;2.58;;;;;;;17.35;62.37;97455.58;1670793;84;21064;-82
2021/09/06 11:23:39;;;;;;;2.55;1.85;;;;;;;17.38;62.24;97460.44;1707702;83;21627;-82
2021/09/06 11:26:06;;;;;;;5.15;2.62;;;;;;;17.40;62.99;97455.79;1714367;83;21131;-82
2021/09/06 11:28:32;;;;;;;5.67;2.65;;;;;;;17.44;63.80;97453.60;1675372;84;21055;-82
2021/09/06 11:30:58;;;;;;;3.40;2.60;;;;;;;17.45;63.36;97455.72;1706625;83;21095;-83
2021/09/06 11:33:26;;;;;;;4.97;2.30;;;;;;;17.47;61.27;97452.39;1666005;84;21097;-82
2021/09/06 11:35:51;;;;;;;4.53;2.67;;;;;;;17.51;59.26;97449.16;1678854;83;21135;-82